Claire — 6YRX3 — position and weather

sailwx.info

Track history (hours):
 
Tides and Currents Weather Stations Pressure Air Temp Water Temp Dewpoint Dewpoint Depression Visibility Wind Speed Wind Dir Waves Ship Positions

Claire

Last reported at 2018-Apr-10 06:52 UTC. Time now 2018-Apr-25 06:48 UTC.
Position N 26°21' W 080°05'.
Warning: this ship's position is 14 days out of date.

Length 41 m.

Type: Pleasure craft. MMSI: 339371000.

Date/timePositionNaut miles runAvg speedWind from/ knotsBaromVisibWave heightAir tempDewpointWater temp
2018-Apr-10 06:52N 26°21' W 080°05'0 0.0
2018-Apr-10 06:28N 26°21' W 080°05'0 0.0
2018-Apr-10 06:00N 26°21' W 080°05'0 0.0
2018-Apr-10 05:30N 26°21' W 080°05'0 0.0
2018-Apr-10 05:00N 26°21' W 080°05'0 0.0
2018-Apr-10 04:30N 26°21' W 080°05'0 0.0
2018-Apr-10 03:59N 26°21' W 080°05'0 0.0
2018-Apr-10 03:29N 26°21' W 080°05'0 0.0
2018-Apr-10 02:50N 26°21' W 080°05'0 0.0
2018-Apr-10 02:30N 26°21' W 080°05'0 0.0
2018-Apr-10 02:00N 26°21' W 080°05'0 0.1
2018-Apr-10 01:30N 26°21' W 080°05'0 0.0
2018-Apr-10 01:00N 26°21' W 080°05'0 0.0
2018-Apr-10 00:30N 26°21' W 080°05'0 0.0
2018-Apr-10 00:00N 26°21' W 080°05'0 0.0
2018-Apr-09 23:30N 26°21' W 080°05'0 0.0
2018-Apr-09 23:00N 26°21' W 080°05'0 0.0
2018-Apr-09 22:29N 26°21' W 080°05'0 0.0
2018-Apr-09 22:00N 26°21' W 080°05'0 0.0
2018-Apr-09 21:25N 26°21' W 080°05'0 0.0
2018-Apr-09 20:58N 26°21' W 080°05'0 0.0
2018-Apr-09 20:30N 26°21' W 080°05'0 0.0
2018-Apr-09 20:00N 26°21' W 080°05'3 5.1
2018-Apr-09 19:30N 26°18' W 080°05'3 6.3
2018-Apr-09 19:00N 26°15' W 080°05'3 6.3
2018-Apr-09 18:30N 26°12' W 080°06'3 6.6
2018-Apr-09 18:00N 26°09' W 080°06'2 4.6
2018-Apr-09 17:30N 26°06' W 080°07'2 4.9
2018-Apr-09 17:00N 26°07' W 080°05'4 8.9
2018-Apr-09 16:30N 26°10' W 080°01'5 9.6
2018-Apr-09 16:00N 26°11' W 079°56'5 9.9
2018-Apr-09 15:30N 26°11' W 079°50'510.2
2018-Apr-09 15:00N 26°10' W 079°45'510.1
2018-Apr-09 14:29N 26°09' W 079°39'510.1
2018-Apr-09 13:57N 26°08' W 079°33'  
Track history (hours):
 
Tides and Currents Weather Stations Pressure Air Temp Water Temp Dewpoint Dewpoint Depression Visibility Wind Speed Wind Dir Waves Ship Positions

Claire

Last reported at 2018-Apr-10 06:52 UTC. Time now 2018-Apr-25 06:48 UTC.
Position N 26°21' W 080°05'.
Warning: this ship's position is 14 days out of date.

Length 41 m.

Type: Pleasure craft. MMSI: 339371000.

Date/timePositionNaut miles runAvg speedWind from/ knotsBaromVisibWave heightAir tempDewpointWater temp
2018-Apr-10 06:52N 26°21' W 080°05'0 0.0
2018-Apr-10 06:28N 26°21' W 080°05'0 0.0
2018-Apr-10 06:00N 26°21' W 080°05'0 0.0
2018-Apr-10 05:30N 26°21' W 080°05'0 0.0
2018-Apr-10 05:00N 26°21' W 080°05'0 0.0
2018-Apr-10 04:30N 26°21' W 080°05'0 0.0
2018-Apr-10 03:59N 26°21' W 080°05'0 0.0
2018-Apr-10 03:29N 26°21' W 080°05'0 0.0
2018-Apr-10 02:50N 26°21' W 080°05'0 0.0
2018-Apr-10 02:30N 26°21' W 080°05'0 0.0
2018-Apr-10 02:00N 26°21' W 080°05'0 0.1
2018-Apr-10 01:30N 26°21' W 080°05'0 0.0
2018-Apr-10 01:00N 26°21' W 080°05'0 0.0
2018-Apr-10 00:30N 26°21' W 080°05'0 0.0
2018-Apr-10 00:00N 26°21' W 080°05'0 0.0
2018-Apr-09 23:30N 26°21' W 080°05'0 0.0
2018-Apr-09 23:00N 26°21' W 080°05'0 0.0
2018-Apr-09 22:29N 26°21' W 080°05'0 0.0
2018-Apr-09 22:00N 26°21' W 080°05'0 0.0
2018-Apr-09 21:25N 26°21' W 080°05'0 0.0
2018-Apr-09 20:58N 26°21' W 080°05'0 0.0
2018-Apr-09 20:30N 26°21' W 080°05'0 0.0
2018-Apr-09 20:00N 26°21' W 080°05'3 5.1
2018-Apr-09 19:30N 26°18' W 080°05'3 6.3
2018-Apr-09 19:00N 26°15' W 080°05'3 6.3
2018-Apr-09 18:30N 26°12' W 080°06'3 6.6
2018-Apr-09 18:00N 26°09' W 080°06'2 4.6
2018-Apr-09 17:30N 26°06' W 080°07'2 4.9
2018-Apr-09 17:00N 26°07' W 080°05'4 8.9
2018-Apr-09 16:30N 26°10' W 080°01'5 9.6
2018-Apr-09 16:00N 26°11' W 079°56'5 9.9
2018-Apr-09 15:30N 26°11' W 079°50'510.2
2018-Apr-09 15:00N 26°10' W 079°45'510.1
2018-Apr-09 14:29N 26°09' W 079°39'510.1
2018-Apr-09 13:57N 26°08' W 079°33'  

Dump ship's entire track history